sensor_id;sensor_type;location;lat;lon;timestamp;temperature;humidity
17944;DHT22;9097;47.028;15.444;2022-08-11T18:52:30;23.00;99.90
17944;DHT22;9097;47.028;15.444;2022-08-11T18:55:51;23.00;99.90
17944;DHT22;9097;47.028;15.444;2022-08-11T18:59:11;22.90;99.90
17944;DHT22;9097;47.028;15.444;2022-08-11T19:02:35;22.80;99.90
17944;DHT22;9097;47.028;15.444;2022-08-11T19:05:59;22.80;99.90
17944;DHT22;9097;47.028;15.444;2022-08-11T19:09:19;22.80;99.90
17944;DHT22;9097;47.028;15.444;2022-08-11T19:12:41;22.80;99.90
17944;DHT22;9097;47.028;15.444;2022-08-11T19:16:04;22.70;99.90
17944;DHT22;9097;47.028;15.444;2022-08-11T19:19:26;22.70;99.90
17944;DHT22;9097;47.028;15.444;2022-08-11T19:22:48;22.70;99.90
17944;DHT22;9097;47.028;15.444;2022-08-11T19:26:09;22.60;99.90
17944;DHT22;9097;47.028;15.444;2022-08-11T19:29:30;22.60;99.90
17944;DHT22;9097;47.028;15.444;2022-08-11T19:32:51;22.60;99.90
17944;DHT22;9097;47.028;15.444;2022-08-11T19:36:12;22.50;99.90
17944;DHT22;9097;47.028;15.444;2022-08-11T19:39:34;22.50;99.90
17944;DHT22;9097;47.028;15.444;2022-08-11T19:42:56;22.50;99.90
17944;DHT22;9097;47.028;15.444;2022-08-11T19:46:18;22.50;99.90
17944;DHT22;9097;47.028;15.444;2022-08-11T19:49:40;22.40;99.90
17944;DHT22;9097;47.028;15.444;2022-08-11T19:53:01;22.40;99.90
17944;DHT22;9097;47.028;15.444;2022-08-11T19:56:23;22.40;99.90
17944;DHT22;9097;47.028;15.444;2022-08-11T19:59:43;22.40;99.90
17944;DHT22;9097;47.028;15.444;2022-08-11T20:03:06;22.30;99.90
17944;DHT22;9097;47.028;15.444;2022-08-11T20:06:26;22.30;99.90
17944;DHT22;9097;47.028;15.444;2022-08-11T20:09:47;22.20;99.90
17944;DHT22;9097;47.028;15.444;2022-08-11T20:13:11;22.20;99.90
17944;DHT22;9097;47.028;15.444;2022-08-11T20:16:32;22.20;99.90
17944;DHT22;9097;47.028;15.444;2022-08-11T20:19:52;22.20;99.90
17944;DHT22;9097;47.028;15.444;2022-08-11T20:23:14;22.10;99.90
17944;DHT22;9097;47.028;15.444;2022-08-11T20:26:35;22.10;99.90
17944;DHT22;9097;47.028;15.444;2022-08-11T20:29:58;22.10;99.90
17944;DHT22;9097;47.028;15.444;2022-08-11T20:33:21;22.10;99.90
17944;DHT22;9097;47.028;15.444;2022-08-11T20:36:41;22.00;99.90
17944;DHT22;9097;47.028;15.444;2022-08-11T20:40:03;22.00;99.90
17944;DHT22;9097;47.028;15.444;2022-08-11T20:43:25;22.00;99.90
17944;DHT22;9097;47.028;15.444;2022-08-11T20:46:47;22.00;99.90
17944;DHT22;9097;47.028;15.444;2022-08-11T20:50:08;22.00;99.90
17944;DHT22;9097;47.028;15.444;2022-08-11T20:53:28;22.00;99.90
17944;DHT22;9097;47.028;15.444;2022-08-11T20:56:48;22.00;99.90
17944;DHT22;9097;47.028;15.444;2022-08-11T21:00:09;22.00;99.90
17944;DHT22;9097;47.028;15.444;2022-08-11T21:03:31;22.00;99.90
17944;DHT22;9097;47.028;15.444;2022-08-11T21:06:53;22.00;99.90
17944;DHT22;9097;47.028;15.444;2022-08-11T21:10:13;22.00;99.90
17944;DHT22;9097;47.028;15.444;2022-08-11T21:13:37;22.00;99.90
17944;DHT22;9097;47.028;15.444;2022-08-11T21:16:59;22.00;99.90
17944;DHT22;9097;47.028;15.444;2022-08-11T21:20:22;22.00;99.90
17944;DHT22;9097;47.028;15.444;2022-08-11T21:23:48;21.90;99.90
17944;DHT22;9097;47.028;15.444;2022-08-11T21:27:12;21.90;99.90
17944;DHT22;9097;47.028;15.444;2022-08-11T21:30:34;21.90;99.90
17944;DHT22;9097;47.028;15.444;2022-08-11T21:33:55;21.80;99.90
17944;DHT22;9097;47.028;15.444;2022-08-11T21:37:18;21.80;99.90
17944;DHT22;9097;47.028;15.444;2022-08-11T21:40:40;21.80;99.90
17944;DHT22;9097;47.028;15.444;2022-08-11T21:44:01;21.70;99.90
17944;DHT22;9097;47.028;15.444;2022-08-11T21:47:23;21.60;99.90
17944;DHT22;9097;47.028;15.444;2022-08-11T21:50:43;21.60;99.90
17944;DHT22;9097;47.028;15.444;2022-08-11T21:54:05;21.70;99.90
17944;DHT22;9097;47.028;15.444;2022-08-11T21:57:26;21.50;99.90
17944;DHT22;9097;47.028;15.444;2022-08-11T22:00:47;21.50;99.90
17944;DHT22;9097;47.028;15.444;2022-08-11T22:04:07;21.50;99.90
17944;DHT22;9097;47.028;15.444;2022-08-11T22:07:28;21.50;99.90
17944;DHT22;9097;47.028;15.444;2022-08-11T22:10:49;21.50;99.90
17944;DHT22;9097;47.028;15.444;2022-08-11T22:14:09;21.50;99.90
17944;DHT22;9097;47.028;15.444;2022-08-11T22:17:28;21.50;99.90
